sensor_id;sensor_type;location;lat;lon;timestamp;P1;durP1;ratioP1;P2;durP2;ratioP2
53203;SDS011;39086;54.424;18.456;2023-04-06T00:00:49;4.68;;;2.85;;
53203;SDS011;39086;54.424;18.456;2023-04-06T00:01:53;4.45;;;2.75;;
53203;SDS011;39086;54.424;18.456;2023-04-06T00:02:55;4.13;;;2.53;;
53203;SDS011;39086;54.424;18.456;2023-04-06T00:03:59;6.93;;;3.05;;
53203;SDS011;39086;54.424;18.456;2023-04-06T00:05:01;4.28;;;2.60;;
53203;SDS011;39086;54.424;18.456;2023-04-06T00:06:04;6.90;;;3.38;;
53203;SDS011;39086;54.424;18.456;2023-04-06T00:07:07;5.47;;;2.53;;
53203;SDS011;39086;54.424;18.456;2023-04-06T00:08:10;4.13;;;2.33;;
53203;SDS011;39086;54.424;18.456;2023-04-06T00:09:12;6.45;;;2.92;;
53203;SDS011;39086;54.424;18.456;2023-04-06T00:10:16;3.83;;;2.67;;
53203;SDS011;39086;54.424;18.456;2023-04-06T00:11:18;10.15;;;2.97;;
53203;SDS011;39086;54.424;18.456;2023-04-06T00:12:22;7.32;;;2.38;;
53203;SDS011;39086;54.424;18.456;2023-04-06T00:13:24;4.28;;;2.63;;
53203;SDS011;39086;54.424;18.456;2023-04-06T00:14:27;4.78;;;2.50;;
53203;SDS011;39086;54.424;18.456;2023-04-06T00:15:30;5.00;;;2.78;;
53203;SDS011;39086;54.424;18.456;2023-04-06T00:16:34;4.93;;;2.60;;
53203;SDS011;39086;54.424;18.456;2023-04-06T00:17:37;3.80;;;2.55;;
53203;SDS011;39086;54.424;18.456;2023-04-06T00:18:40;2.65;;;2.08;;
53203;SDS011;39086;54.424;18.456;2023-04-06T00:19:42;5.30;;;2.28;;
53203;SDS011;39086;54.424;18.456;2023-04-06T00:20:46;4.53;;;3.28;;
53203;SDS011;39086;54.424;18.456;2023-04-06T00:21:48;6.03;;;2.40;;
53203;SDS011;39086;54.424;18.456;2023-04-06T00:22:52;5.93;;;2.85;;
53203;SDS011;39086;54.424;18.456;2023-04-06T00:23:55;5.20;;;2.40;;
53203;SDS011;39086;54.424;18.456;2023-04-06T00:24:58;5.32;;;2.95;;
53203;SDS011;39086;54.424;18.456;2023-04-06T00:26:00;5.80;;;2.70;;
53203;SDS011;39086;54.424;18.456;2023-04-06T00:27:04;5.30;;;2.72;;
53203;SDS011;39086;54.424;18.456;2023-04-06T00:28:06;4.68;;;2.53;;
53203;SDS011;39086;54.424;18.456;2023-04-06T00:29:09;4.40;;;2.65;;
53203;SDS011;39086;54.424;18.456;2023-04-06T00:30:12;3.92;;;2.80;;
53203;SDS011;39086;54.424;18.456;2023-04-06T00:31:15;5.85;;;2.40;;
53203;SDS011;39086;54.424;18.456;2023-04-06T00:32:19;8.27;;;2.55;;
53203;SDS011;39086;54.424;18.456;2023-04-06T00:33:23;3.45;;;2.50;;
53203;SDS011;39086;54.424;18.456;2023-04-06T00:34:25;3.28;;;2.60;;
53203;SDS011;39086;54.424;18.456;2023-04-06T00:35:28;4.38;;;2.60;;
53203;SDS011;39086;54.424;18.456;2023-04-06T00:36:31;6.65;;;2.80;;
53203;SDS011;39086;54.424;18.456;2023-04-06T00:37:34;5.65;;;2.60;;
53203;SDS011;39086;54.424;18.456;2023-04-06T00:38:36;6.05;;;2.72;;
53203;SDS011;39086;54.424;18.456;2023-04-06T00:39:39;5.93;;;3.00;;
53203;SDS011;39086;54.424;18.456;2023-04-06T00:40:42;7.32;;;3.10;;
53203;SDS011;39086;54.424;18.456;2023-04-06T00:41:48;6.82;;;2.95;;
53203;SDS011;39086;54.424;18.456;2023-04-06T00:42:51;7.50;;;3.45;;
53203;SDS011;39086;54.424;18.456;2023-04-06T00:43:54;3.88;;;2.33;;
53203;SDS011;39086;54.424;18.456;2023-04-06T00:44:58;9.27;;;3.85;;
53203;SDS011;39086;54.424;18.456;2023-04-06T00:46:01;7.90;;;3.58;;
53203;SDS011;39086;54.424;18.456;2023-04-06T00:47:03;11.57;;;5.30;;
53203;SDS011;39086;54.424;18.456;2023-04-06T00:48:08;7.25;;;4.43;;
53203;SDS011;39086;54.424;18.456;2023-04-06T00:49:11;4.85;;;3.70;;
53203;SDS011;39086;54.424;18.456;2023-04-06T00:50:14;6.93;;;3.15;;
53203;SDS011;39086;54.424;18.456;2023-04-06T00:51:17;8.77;;;3.72;;
53203;SDS011;39086;54.424;18.456;2023-04-06T00:52:20;13.18;;;4.78;;
53203;SDS011;39086;54.424;18.456;2023-04-06T00:53:23;7.00;;;4.38;;
53203;SDS011;39086;54.424;18.456;2023-04-06T00:54:26;13.15;;;4.72;;
53203;SDS011;39086;54.424;18.456;2023-04-06T00:55:29;11.48;;;5.88;;
53203;SDS011;39086;54.424;18.456;2023-04-06T00:56:32;8.48;;;4.78;;
53203;SDS011;39086;54.424;18.456;2023-04-06T00:57:35;15.57;;;6.03;;
53203;SDS011;39086;54.424;18.456;2023-04-06T00:58:38;12.00;;;5.88;;
53203;SDS011;39086;54.424;18.456;2023-04-06T00:59:41;14.10;;;5.78;;
53203;SDS011;39086;54.424;18.456;2023-04-06T01:00:45;11.00;;;5.30;;
53203;SDS011;39086;54.424;18.456;2023-04-06T01:01:47;10.30;;;5.25;;
53203;SDS011;39086;54.424;18.456;2023-04-06T01:02:51;11.05;;;5.40;;
53203;SDS011;39086;54.424;18.456;2023-04-06T01:03:55;13.93;;;5.78;;
53203;SDS011;39086;54.424;18.456;2023-04-06T01:04:59;12.75;;;6.20;;
53203;SDS011;39086;54.424;18.456;2023-04-06T01:06:01;15.80;;;6.68;;
53203;SDS011;39086;54.424;18.456;2023-04-06T01:07:04;14.27;;;6.50;;
53203;SDS011;39086;54.424;18.456;2023-04-06T01:08:07;15.05;;;6.07;;
53203;SDS011;39086;54.424;18.456;2023-04-06T01:09:10;15.63;;;5.10;;
53203;SDS011;39086;54.424;18.456;2023-04-06T01:10:22;19.75;;;6.28;;
53203;SDS011;39086;54.424;18.456;2023-04-06T01:11:25;13.45;;;6.05;;
53203;SDS011;39086;54.424;18.456;2023-04-06T01:12:28;11.68;;;5.80;;
53203;SDS011;39086;54.424;18.456;2023-04-06T01:13:31;9.32;;;5.38;;
53203;SDS011;39086;54.424;18.456;2023-04-06T01:14:34;14.38;;;5.45;;
53203;SDS011;39086;54.424;18.456;2023-04-06T01:15:37;13.65;;;6.35;;
53203;SDS011;39086;54.424;18.456;2023-04-06T01:20:27;11.48;;;4.97;;
53203;SDS011;39086;54.424;18.456;2023-04-06T01:21:31;15.50;;;5.32;;
53203;SDS011;39086;54.424;18.456;2023-04-06T01:22:35;11.93;;;5.35;;
53203;SDS011;39086;54.424;18.456;2023-04-06T01:23:38;18.60;;;6.15;;
53203;SDS011;39086;54.424;18.456;2023-04-06T01:24:41;9.48;;;5.45;;
53203;SDS011;39086;54.424;18.456;2023-04-06T01:25:44;14.07;;;5.35;;
53203;SDS011;39086;54.424;18.456;2023-04-06T01:26:46;19.90;;;5.18;;
53203;SDS011;39086;54.424;18.456;2023-04-06T01:27:50;11.43;;;4.75;;
53203;SDS011;39086;54.424;18.456;2023-04-06T01:28:52;12.52;;;5.65;;
53203;SDS011;39086;54.424;18.456;2023-04-06T01:29:56;12.10;;;4.90;;
53203;SDS011;39086;54.424;18.456;2023-04-06T01:30:58;7.35;;;4.68;;
53203;SDS011;39086;54.424;18.456;2023-04-06T01:32:02;14.05;;;4.38;;
53203;SDS011;39086;54.424;18.456;2023-04-06T01:33:04;11.75;;;4.43;;
53203;SDS011;39086;54.424;18.456;2023-04-06T01:34:07;9.90;;;4.10;;
53203;SDS011;39086;54.424;18.456;2023-04-06T01:35:10;9.85;;;4.18;;
53203;SDS011;39086;54.424;18.456;2023-04-06T01:36:13;8.82;;;3.95;;
53203;SDS011;39086;54.424;18.456;2023-04-06T01:37:15;9.75;;;4.35;;
53203;SDS011;39086;54.424;18.456;2023-04-06T01:38:20;10.43;;;4.30;;
53203;SDS011;39086;54.424;18.456;2023-04-06T01:39:22;9.88;;;4.10;;
53203;SDS011;39086;54.424;18.456;2023-04-06T01:40:26;9.40;;;4.18;;
53203;SDS011;39086;54.424;18.456;2023-04-06T01:41:29;8.30;;;4.63;;
53203;SDS011;39086;54.424;18.456;2023-04-06T01:42:32;9.82;;;4.13;;
53203;SDS011;39086;54.424;18.456;2023-04-06T01:43:34;7.93;;;3.65;;
53203;SDS011;39086;54.424;18.456;2023-04-06T01:44:38;9.52;;;3.60;;
53203;SDS011;39086;54.424;18.456;2023-04-06T01:45:40;7.55;;;4.20;;
53203;SDS011;39086;54.424;18.456;2023-04-06T01:46:43;9.50;;;3.78;;
53203;SDS011;39086;54.424;18.456;2023-04-06T01:47:47;8.63;;;3.92;;
53203;SDS011;39086;54.424;18.456;2023-04-06T01:48:50;4.60;;;3.65;;
53203;SDS011;39086;54.424;18.456;2023-04-06T01:49:53;8.50;;;3.70;;
53203;SDS011;39086;54.424;18.456;2023-04-06T01:50:56;9.85;;;4.07;;
53203;SDS011;39086;54.424;18.456;2023-04-06T01:51:58;9.35;;;4.13;;
53203;SDS011;39086;54.424;18.456;2023-04-06T01:53:02;11.25;;;4.75;;
53203;SDS011;39086;54.424;18.456;2023-04-06T01:54:05;8.05;;;3.38;;
53203;SDS011;39086;54.424;18.456;2023-04-06T01:55:09;11.80;;;3.80;;
53203;SDS011;39086;54.424;18.456;2023-04-06T01:56:11;6.25;;;3.85;;
53203;SDS011;39086;54.424;18.456;2023-04-06T01:57:14;8.30;;;4.25;;
53203;SDS011;39086;54.424;18.456;2023-04-06T01:58:17;7.82;;;3.88;;
53203;SDS011;39086;54.424;18.456;2023-04-06T01:59:20;7.38;;;4.00;;
53203;SDS011;39086;54.424;18.456;2023-04-06T02:00:22;7.72;;;3.85;;
53203;SDS011;39086;54.424;18.456;2023-04-06T02:01:26;8.60;;;3.55;;
53203;SDS011;39086;54.424;18.456;2023-04-06T02:02:28;10.27;;;4.68;;
53203;SDS011;39086;54.424;18.456;2023-04-06T02:03:32;9.20;;;4.18;;
53203;SDS011;39086;54.424;18.456;2023-04-06T02:04:34;7.18;;;4.28;;
53203;SDS011;39086;54.424;18.456;2023-04-06T02:05:37;5.50;;;3.40;;
53203;SDS011;39086;54.424;18.456;2023-04-06T02:06:40;6.18;;;4.15;;
53203;SDS011;39086;54.424;18.456;2023-04-06T02:07:43;6.70;;;4.35;;
53203;SDS011;39086;54.424;18.456;2023-04-06T02:08:46;8.20;;;4.25;;
53203;SDS011;39086;54.424;18.456;2023-04-06T02:09:53;8.90;;;4.38;;
53203;SDS011;39086;54.424;18.456;2023-04-06T02:10:56;8.02;;;4.22;;
53203;SDS011;39086;54.424;18.456;2023-04-06T02:11:59;11.25;;;4.47;;
53203;SDS011;39086;54.424;18.456;2023-04-06T02:13:02;8.98;;;4.43;;
53203;SDS011;39086;54.424;18.456;2023-04-06T02:14:06;7.65;;;4.07;;
53203;SDS011;39086;54.424;18.456;2023-04-06T02:15:08;8.98;;;4.68;;
53203;SDS011;39086;54.424;18.456;2023-04-06T02:16:14;13.57;;;4.88;;
53203;SDS011;39086;54.424;18.456;2023-04-06T02:17:17;11.23;;;5.25;;
53203;SDS011;39086;54.424;18.456;2023-04-06T02:18:20;6.95;;;4.38;;
53203;SDS011;39086;54.424;18.456;2023-04-06T02:19:23;9.95;;;4.75;;
53203;SDS011;39086;54.424;18.456;2023-04-06T02:20:27;8.57;;;4.50;;
53203;SDS011;39086;54.424;18.456;2023-04-06T02:21:29;14.13;;;4.60;;
53203;SDS011;39086;54.424;18.456;2023-04-06T02:22:33;13.07;;;4.47;;
53203;SDS011;39086;54.424;18.456;2023-04-06T02:23:35;13.20;;;5.10;;
53203;SDS011;39086;54.424;18.456;2023-04-06T02:24:38;9.55;;;5.03;;
53203;SDS011;39086;54.424;18.456;2023-04-06T02:25:42;9.25;;;4.45;;
53203;SDS011;39086;54.424;18.456;2023-04-06T02:26:46;10.35;;;5.05;;
53203;SDS011;39086;54.424;18.456;2023-04-06T02:27:48;6.65;;;4.70;;
53203;SDS011;39086;54.424;18.456;2023-04-06T02:28:51;10.20;;;4.55;;
53203;SDS011;39086;54.424;18.456;2023-04-06T02:29:53;7.63;;;4.50;;
53203;SDS011;39086;54.424;18.456;2023-04-06T02:30:57;10.20;;;4.68;;
53203;SDS011;39086;54.424;18.456;2023-04-06T02:31:59;8.93;;;4.65;;
53203;SDS011;39086;54.424;18.456;2023-04-06T02:33:02;11.43;;;5.13;;
53203;SDS011;39086;54.424;18.456;2023-04-06T02:34:05;6.80;;;4.43;;
53203;SDS011;39086;54.424;18.456;2023-04-06T02:35:12;10.75;;;4.72;;
53203;SDS011;39086;54.424;18.456;2023-04-06T02:36:14;9.60;;;4.72;;
53203;SDS011;39086;54.424;18.456;2023-04-06T02:37:17;8.13;;;5.63;;
53203;SDS011;39086;54.424;18.456;2023-04-06T02:38:20;9.20;;;4.82;;
53203;SDS011;39086;54.424;18.456;2023-04-06T02:39:23;11.63;;;4.97;;
53203;SDS011;39086;54.424;18.456;2023-04-06T02:40:25;10.65;;;4.97;;
53203;SDS011;39086;54.424;18.456;2023-04-06T02:41:30;8.88;;;4.97;;
53203;SDS011;39086;54.424;18.456;2023-04-06T02:42:32;7.75;;;4.88;;
53203;SDS011;39086;54.424;18.456;2023-04-06T02:43:36;8.15;;;4.70;;
53203;SDS011;39086;54.424;18.456;2023-04-06T02:44:38;9.65;;;5.18;;
53203;SDS011;39086;54.424;18.456;2023-04-06T02:45:41;8.13;;;4.28;;
53203;SDS011;39086;54.424;18.456;2023-04-06T02:46:44;10.02;;;4.50;;
53203;SDS011;39086;54.424;18.456;2023-04-06T02:47:47;9.50;;;4.55;;
53203;SDS011;39086;54.424;18.456;2023-04-06T02:48:50;13.35;;;5.60;;
53203;SDS011;39086;54.424;18.456;2023-04-06T02:49:53;7.38;;;5.15;;
53203;SDS011;39086;54.424;18.456;2023-04-06T02:50:55;12.63;;;5.47;;
53203;SDS011;39086;54.424;18.456;2023-04-06T02:51:59;10.52;;;5.25;;
53203;SDS011;39086;54.424;18.456;2023-04-06T02:53:01;9.88;;;5.70;;
53203;SDS011;39086;54.424;18.456;2023-04-06T02:54:04;12.48;;;5.80;;
53203;SDS011;39086;54.424;18.456;2023-04-06T02:55:07;7.53;;;4.90;;
53203;SDS011;39086;54.424;18.456;2023-04-06T02:56:10;14.07;;;5.70;;
53203;SDS011;39086;54.424;18.456;2023-04-06T02:57:14;12.55;;;6.63;;
53203;SDS011;39086;54.424;18.456;2023-04-06T02:58:17;10.18;;;4.93;;
53203;SDS011;39086;54.424;18.456;2023-04-06T02:59:20;11.98;;;5.65;;
53203;SDS011;39086;54.424;18.456;2023-04-06T03:00:23;16.65;;;5.47;;
53203;SDS011;39086;54.424;18.456;2023-04-06T03:01:26;14.20;;;5.15;;
53203;SDS011;39086;54.424;18.456;2023-04-06T03:02:29;10.18;;;4.72;;
53203;SDS011;39086;54.424;18.456;2023-04-06T03:03:32;14.15;;;5.30;;
53203;SDS011;39086;54.424;18.456;2023-04-06T03:04:35;13.07;;;5.60;;
53203;SDS011;39086;54.424;18.456;2023-04-06T03:05:37;10.02;;;5.10;;
53203;SDS011;39086;54.424;18.456;2023-04-06T03:06:41;8.52;;;5.05;;
53203;SDS011;39086;54.424;18.456;2023-04-06T03:07:43;8.27;;;5.43;;
53203;SDS011;39086;54.424;18.456;2023-04-06T03:08:47;10.20;;;5.20;;
53203;SDS011;39086;54.424;18.456;2023-04-06T03:09:49;7.65;;;4.97;;
53203;SDS011;39086;54.424;18.456;2023-04-06T03:10:52;9.50;;;5.10;;
53203;SDS011;39086;54.424;18.456;2023-04-06T03:11:54;15.02;;;5.38;;
53203;SDS011;39086;54.424;18.456;2023-04-06T03:13:00;14.68;;;5.18;;
53203;SDS011;39086;54.424;18.456;2023-04-06T03:14:02;12.73;;;5.32;;
53203;SDS011;39086;54.424;18.456;2023-04-06T03:15:06;15.43;;;5.45;;
53203;SDS011;39086;54.424;18.456;2023-04-06T03:16:08;14.40;;;5.40;;
53203;SDS011;39086;54.424;18.456;2023-04-06T03:17:12;13.90;;;5.45;;
53203;SDS011;39086;54.424;18.456;2023-04-06T03:18:14;17.63;;;4.97;;
53203;SDS011;39086;54.424;18.456;2023-04-06T03:19:17;15.35;;;5.63;;
53203;SDS011;39086;54.424;18.456;2023-04-06T03:20:19;12.68;;;5.25;;
53203;SDS011;39086;54.424;18.456;2023-04-06T03:21:23;11.52;;;4.40;;
53203;SDS011;39086;54.424;18.456;2023-04-06T03:22:25;10.80;;;5.10;;
53203;SDS011;39086;54.424;18.456;2023-04-06T03:23:28;10.20;;;5.40;;
53203;SDS011;39086;54.424;18.456;2023-04-06T03:24:31;11.45;;;5.13;;
53203;SDS011;39086;54.424;18.456;2023-04-06T03:25:34;10.38;;;4.75;;
53203;SDS011;39086;54.424;18.456;2023-04-06T03:26:36;9.70;;;4.93;;
53203;SDS011;39086;54.424;18.456;2023-04-06T03:27:40;10.52;;;4.13;;
53203;SDS011;39086;54.424;18.456;2023-04-06T03:28:43;9.57;;;5.38;;
53203;SDS011;39086;54.424;18.456;2023-04-06T03:29:47;9.50;;;5.18;;
53203;SDS011;39086;54.424;18.456;2023-04-06T03:30:49;7.97;;;5.28;;
53203;SDS011;39086;54.424;18.456;2023-04-06T03:31:52;11.73;;;4.90;;
53203;SDS011;39086;54.424;18.456;2023-04-06T03:32:55;7.80;;;4.38;;
53203;SDS011;39086;54.424;18.456;2023-04-06T03:33:58;9.45;;;4.25;;
53203;SDS011;39086;54.424;18.456;2023-04-06T03:35:01;7.35;;;4.55;;
53203;SDS011;39086;54.424;18.456;2023-04-06T03:36:04;7.53;;;4.88;;
53203;SDS011;39086;54.424;18.456;2023-04-06T03:37:09;8.45;;;4.38;;
53203;SDS011;39086;54.424;18.456;2023-04-06T03:38:12;10.52;;;4.93;;
53203;SDS011;39086;54.424;18.456;2023-04-06T03:39:14;10.77;;;5.30;;
53203;SDS011;39086;54.424;18.456;2023-04-06T03:40:17;11.38;;;5.50;;
53203;SDS011;39086;54.424;18.456;2023-04-06T03:41:20;10.23;;;5.38;;
53203;SDS011;39086;54.424;18.456;2023-04-06T03:42:23;12.30;;;5.35;;
53203;SDS011;39086;54.424;18.456;2023-04-06T03:43:26;9.43;;;5.47;;
53203;SDS011;39086;54.424;18.456;2023-04-06T03:44:31;9.38;;;4.82;;
53203;SDS011;39086;54.424;18.456;2023-04-06T03:45:33;8.48;;;5.07;;
53203;SDS011;39086;54.424;18.456;2023-04-06T03:46:36;13.32;;;5.55;;
53203;SDS011;39086;54.424;18.456;2023-04-06T03:47:39;11.80;;;5.63;;
53203;SDS011;39086;54.424;18.456;2023-04-06T03:48:42;12.00;;;5.40;;
53203;SDS011;39086;54.424;18.456;2023-04-06T03:49:45;7.28;;;5.07;;
53203;SDS011;39086;54.424;18.456;2023-04-06T03:50:48;11.63;;;5.18;;
53203;SDS011;39086;54.424;18.456;2023-04-06T03:51:50;8.18;;;4.72;;
53203;SDS011;39086;54.424;18.456;2023-04-06T03:52:53;14.23;;;5.38;;
53203;SDS011;39086;54.424;18.456;2023-04-06T03:53:56;10.98;;;5.05;;
53203;SDS011;39086;54.424;18.456;2023-04-06T03:54:59;10.45;;;5.32;;
53203;SDS011;39086;54.424;18.456;2023-04-06T03:56:02;10.75;;;5.35;;
53203;SDS011;39086;54.424;18.456;2023-04-06T03:57:05;10.07;;;5.28;;
53203;SDS011;39086;54.424;18.456;2023-04-06T03:58:08;9.10;;;4.97;;
53203;SDS011;39086;54.424;18.456;2023-04-06T03:59:11;9.57;;;4.88;;
53203;SDS011;39086;54.424;18.456;2023-04-06T04:00:15;6.00;;;4.18;;
53203;SDS011;39086;54.424;18.456;2023-04-06T04:01:18;7.85;;;4.75;;
53203;SDS011;39086;54.424;18.456;2023-04-06T04:02:21;11.00;;;4.63;;
53203;SDS011;39086;54.424;18.456;2023-04-06T04:03:25;11.57;;;4.45;;
53203;SDS011;39086;54.424;18.456;2023-04-06T04:04:29;9.30;;;4.97;;
53203;SDS011;39086;54.424;18.456;2023-04-06T04:05:32;8.82;;;4.75;;
53203;SDS011;39086;54.424;18.456;2023-04-06T04:06:34;7.25;;;3.92;;
53203;SDS011;39086;54.424;18.456;2023-04-06T04:07:38;9.73;;;4.07;;
53203;SDS011;39086;54.424;18.456;2023-04-06T04:08:40;9.68;;;4.22;;
53203;SDS011;39086;54.424;18.456;2023-04-06T04:09:44;10.88;;;4.45;;
53203;SDS011;39086;54.424;18.456;2023-04-06T04:10:46;9.95;;;4.90;;
53203;SDS011;39086;54.424;18.456;2023-04-06T04:11:49;12.40;;;4.95;;
53203;SDS011;39086;54.424;18.456;2023-04-06T04:12:52;11.90;;;5.20;;
53203;SDS011;39086;54.424;18.456;2023-04-06T04:13:55;11.00;;;4.95;;
53203;SDS011;39086;54.424;18.456;2023-04-06T04:14:57;12.88;;;5.40;;
53203;SDS011;39086;54.424;18.456;2023-04-06T04:16:02;8.00;;;4.57;;
53203;SDS011;39086;54.424;18.456;2023-04-06T04:17:04;9.27;;;4.60;;
53203;SDS011;39086;54.424;18.456;2023-04-06T04:18:08;12.40;;;5.05;;
53203;SDS011;39086;54.424;18.456;2023-04-06T04:19:10;9.82;;;4.65;;
53203;SDS011;39086;54.424;18.456;2023-04-06T04:20:14;9.32;;;5.25;;
53203;SDS011;39086;54.424;18.456;2023-04-06T04:21:16;6.50;;;4.85;;
53203;SDS011;39086;54.424;18.456;2023-04-06T04:22:20;9.75;;;5.78;;
53203;SDS011;39086;54.424;18.456;2023-04-06T04:23:22;9.70;;;4.95;;
53203;SDS011;39086;54.424;18.456;2023-04-06T04:24:25;11.98;;;4.97;;
53203;SDS011;39086;54.424;18.456;2023-04-06T04:25:28;9.30;;;4.63;;
53203;SDS011;39086;54.424;18.456;2023-04-06T04:26:31;8.98;;;5.03;;
53203;SDS011;39086;54.424;18.456;2023-04-06T04:27:33;11.50;;;5.97;;
53203;SDS011;39086;54.424;18.456;2023-04-06T04:28:37;8.60;;;5.22;;
53203;SDS011;39086;54.424;18.456;2023-04-06T04:29:39;8.55;;;4.97;;
53203;SDS011;39086;54.424;18.456;2023-04-06T04:30:42;11.00;;;5.60;;
53203;SDS011;39086;54.424;18.456;2023-04-06T04:31:46;10.70;;;5.25;;
53203;SDS011;39086;54.424;18.456;2023-04-06T04:32:49;10.32;;;5.15;;
53203;SDS011;39086;54.424;18.456;2023-04-06T04:33:52;11.13;;;5.65;;
53203;SDS011;39086;54.424;18.456;2023-04-06T04:34:55;11.63;;;5.35;;
53203;SDS011;39086;54.424;18.456;2023-04-06T04:35:57;7.82;;;5.05;;
53203;SDS011;39086;54.424;18.456;2023-04-06T04:37:01;9.02;;;5.43;;
53203;SDS011;39086;54.424;18.456;2023-04-06T04:38:03;12.48;;;6.22;;
53203;SDS011;39086;54.424;18.456;2023-04-06T04:39:06;15.55;;;6.05;;
53203;SDS011;39086;54.424;18.456;2023-04-06T04:40:09;15.73;;;5.80;;
53203;SDS011;39086;54.424;18.456;2023-04-06T04:41:13;14.68;;;5.75;;
53203;SDS011;39086;54.424;18.456;2023-04-06T04:42:15;10.05;;;5.38;;
53203;SDS011;39086;54.424;18.456;2023-04-06T04:43:18;12.05;;;5.50;;
53203;SDS011;39086;54.424;18.456;2023-04-06T04:44:21;12.00;;;5.82;;
53203;SDS011;39086;54.424;18.456;2023-04-06T04:45:24;15.27;;;6.22;;
53203;SDS011;39086;54.424;18.456;2023-04-06T04:46:27;13.10;;;6.28;;
53203;SDS011;39086;54.424;18.456;2023-04-06T04:47:31;15.30;;;5.90;;
53203;SDS011;39086;54.424;18.456;2023-04-06T04:48:34;9.65;;;5.25;;
53203;SDS011;39086;54.424;18.456;2023-04-06T04:49:37;15.32;;;5.82;;
53203;SDS011;39086;54.424;18.456;2023-04-06T04:50:39;15.00;;;6.10;;
53203;SDS011;39086;54.424;18.456;2023-04-06T04:51:43;14.07;;;5.80;;
53203;SDS011;39086;54.424;18.456;2023-04-06T04:52:46;14.60;;;5.60;;
53203;SDS011;39086;54.424;18.456;2023-04-06T04:53:49;8.18;;;4.90;;
53203;SDS011;39086;54.424;18.456;2023-04-06T04:54:51;8.73;;;5.47;;
53203;SDS011;39086;54.424;18.456;2023-04-06T04:55:55;10.30;;;5.85;;
53203;SDS011;39086;54.424;18.456;2023-04-06T04:56:57;10.13;;;5.88;;
53203;SDS011;39086;54.424;18.456;2023-04-06T04:58:00;12.48;;;5.50;;
53203;SDS011;39086;54.424;18.456;2023-04-06T04:59:03;17.70;;;5.93;;
53203;SDS011;39086;54.424;18.456;2023-04-06T05:00:07;21.23;;;6.07;;
53203;SDS011;39086;54.424;18.456;2023-04-06T05:01:10;13.15;;;6.50;;
53203;SDS011;39086;54.424;18.456;2023-04-06T05:02:13;15.75;;;5.90;;
53203;SDS011;39086;54.424;18.456;2023-04-06T05:03:18;14.88;;;6.75;;
53203;SDS011;39086;54.424;18.456;2023-04-06T05:04:23;12.30;;;6.40;;
53203;SDS011;39086;54.424;18.456;2023-04-06T05:05:25;20.50;;;6.20;;
53203;SDS011;39086;54.424;18.456;2023-04-06T05:06:28;13.18;;;5.32;;
53203;SDS011;39086;54.424;18.456;2023-04-06T05:07:31;10.18;;;5.35;;
53203;SDS011;39086;54.424;18.456;2023-04-06T05:08:35;12.25;;;5.88;;
53203;SDS011;39086;54.424;18.456;2023-04-06T05:09:37;17.23;;;5.80;;
53203;SDS011;39086;54.424;18.456;2023-04-06T05:10:40;11.43;;;5.47;;
53203;SDS011;39086;54.424;18.456;2023-04-06T05:11:43;10.90;;;5.50;;
53203;SDS011;39086;54.424;18.456;2023-04-06T05:12:46;15.43;;;6.13;;
53203;SDS011;39086;54.424;18.456;2023-04-06T05:13:48;12.93;;;6.30;;
53203;SDS011;39086;54.424;18.456;2023-04-06T05:14:52;14.90;;;6.38;;
53203;SDS011;39086;54.424;18.456;2023-04-06T05:15:55;12.05;;;6.03;;
53203;SDS011;39086;54.424;18.456;2023-04-06T05:16:58;17.83;;;6.68;;
53203;SDS011;39086;54.424;18.456;2023-04-06T05:18:00;11.00;;;6.07;;
53203;SDS011;39086;54.424;18.456;2023-04-06T05:19:05;8.68;;;5.53;;
53203;SDS011;39086;54.424;18.456;2023-04-06T05:20:08;11.70;;;6.13;;
53203;SDS011;39086;54.424;18.456;2023-04-06T05:21:12;12.75;;;5.47;;
53203;SDS011;39086;54.424;18.456;2023-04-06T05:22:14;11.20;;;5.55;;
53203;SDS011;39086;54.424;18.456;2023-04-06T05:23:18;10.73;;;6.00;;
53203;SDS011;39086;54.424;18.456;2023-04-06T05:24:21;10.25;;;5.68;;
53203;SDS011;39086;54.424;18.456;2023-04-06T05:25:24;14.45;;;5.85;;
53203;SDS011;39086;54.424;18.456;2023-04-06T05:26:26;13.45;;;6.75;;
53203;SDS011;39086;54.424;18.456;2023-04-06T05:27:30;13.30;;;6.53;;
53203;SDS011;39086;54.424;18.456;2023-04-06T05:28:33;8.05;;;5.00;;
53203;SDS011;39086;54.424;18.456;2023-04-06T05:29:35;14.85;;;6.90;;
53203;SDS011;39086;54.424;18.456;2023-04-06T05:30:39;14.05;;;6.05;;
53203;SDS011;39086;54.424;18.456;2023-04-06T05:31:41;9.27;;;5.68;;
53203;SDS011;39086;54.424;18.456;2023-04-06T05:32:45;15.88;;;7.30;;
53203;SDS011;39086;54.424;18.456;2023-04-06T05:33:47;15.57;;;6.40;;
53203;SDS011;39086;54.424;18.456;2023-04-06T05:34:52;20.27;;;7.25;;
53203;SDS011;39086;54.424;18.456;2023-04-06T05:35:55;22.17;;;7.10;;
53203;SDS011;39086;54.424;18.456;2023-04-06T05:36:58;19.08;;;6.85;;
53203;SDS011;39086;54.424;18.456;2023-04-06T05:38:00;24.38;;;7.68;;
53203;SDS011;39086;54.424;18.456;2023-04-06T05:39:04;19.38;;;6.68;;
53203;SDS011;39086;54.424;18.456;2023-04-06T05:40:07;23.35;;;8.18;;
53203;SDS011;39086;54.424;18.456;2023-04-06T05:41:10;19.80;;;6.45;;
53203;SDS011;39086;54.424;18.456;2023-04-06T05:42:13;17.90;;;7.13;;
53203;SDS011;39086;54.424;18.456;2023-04-06T05:43:16;15.35;;;6.85;;
53203;SDS011;39086;54.424;18.456;2023-04-06T05:44:20;17.73;;;7.57;;
53203;SDS011;39086;54.424;18.456;2023-04-06T05:45:24;25.20;;;6.82;;
53203;SDS011;39086;54.424;18.456;2023-04-06T05:46:26;19.05;;;7.85;;
53203;SDS011;39086;54.424;18.456;2023-04-06T05:47:29;21.48;;;7.43;;
53203;SDS011;39086;54.424;18.456;2023-04-06T05:48:32;19.05;;;7.70;;
53203;SDS011;39086;54.424;18.456;2023-04-06T05:49:35;21.65;;;7.75;;
53203;SDS011;39086;54.424;18.456;2023-04-06T05:50:39;14.45;;;7.85;;
53203;SDS011;39086;54.424;18.456;2023-04-06T05:51:42;15.68;;;7.88;;
53203;SDS011;39086;54.424;18.456;2023-04-06T05:52:44;19.83;;;8.27;;
53203;SDS011;39086;54.424;18.456;2023-04-06T05:53:48;26.90;;;8.85;;
53203;SDS011;39086;54.424;18.456;2023-04-06T05:54:50;24.30;;;8.43;;
53203;SDS011;39086;54.424;18.456;2023-04-06T05:55:53;25.98;;;9.43;;
53203;SDS011;39086;54.424;18.456;2023-04-06T05:56:55;28.02;;;10.10;;
53203;SDS011;39086;54.424;18.456;2023-04-06T05:57:59;36.65;;;10.00;;
53203;SDS011;39086;54.424;18.456;2023-04-06T05:59:01;31.52;;;9.65;;
53203;SDS011;39086;54.424;18.456;2023-04-06T06:00:05;31.30;;;11.35;;
53203;SDS011;39086;54.424;18.456;2023-04-06T06:01:10;51.72;;;11.95;;
53203;SDS011;39086;54.424;18.456;2023-04-06T06:02:13;35.55;;;12.15;;
53203;SDS011;39086;54.424;18.456;2023-04-06T06:03:15;33.97;;;11.00;;
53203;SDS011;39086;54.424;18.456;2023-04-06T06:04:19;28.00;;;10.18;;
53203;SDS011;39086;54.424;18.456;2023-04-06T06:05:21;37.70;;;12.57;;
53203;SDS011;39086;54.424;18.456;2023-04-06T06:06:26;28.17;;;11.82;;
53203;SDS011;39086;54.424;18.456;2023-04-06T06:07:30;31.80;;;13.82;;
53203;SDS011;39086;54.424;18.456;2023-04-06T06:08:32;41.28;;;16.33;;
53203;SDS011;39086;54.424;18.456;2023-04-06T06:09:36;36.83;;;15.55;;
53203;SDS011;39086;54.424;18.456;2023-04-06T06:10:38;33.28;;;15.45;;
53203;SDS011;39086;54.424;18.456;2023-04-06T06:11:42;46.53;;;16.48;;
53203;SDS011;39086;54.424;18.456;2023-04-06T06:12:44;35.17;;;16.65;;
53203;SDS011;39086;54.424;18.456;2023-04-06T06:13:47;35.00;;;16.15;;
53203;SDS011;39086;54.424;18.456;2023-04-06T06:14:51;29.92;;;15.13;;